Weather at Bragança Airport

Public forecast

Using degrees Celsius for public forecast. Weather courtesy of forecast.io.

Closest aviation weather report (METAR) to Bragança Airport

Closest report is Leon Airport, 64.1 nm (118.8 km) NE. Retrieved 2020/11/26 11:30 UTC (0 seconds ago):

LELN 261130Z 09011KT 9999 FEW015 BKN036 10/06 Q1012

Closest aviation forecast (TAF) to Bragança Airport

Closest forecast is Leon Airport, 64.1 nm (118.8 km) NE. Retrieved 2020/11/26 09:27 UTC (2 hours ago):

TAF LELN 260800Z 2609/2709 08008KT 9999 BKN020 TX09/2615Z TN04/2706Z TEMPO 2609/2624 3000 RA BR BKN008 PROB30 TEMPO 2613/2709 OVC005 TEMPO 2701/2705 0200 FG VV002